Time;durP1;ratioP1;P1;durP2;ratioP2;P2;SDS_P1;SDS_P2;PMS_P1;PMS_P2;Temp;Humidity;BMP_temperature;BMP_pressure;BME280_temperature;BME280_humidity;BME280_pressure;Samples;Min_cycle;Max_cycle;Signal;HPM_P1;HPM_P2
2022/04/16 00:01:53;;;;;;;14.65;6.30;;;13.40;69.10;;;;;;5074329;28;20032;-73
2022/04/16 00:04:32;;;;;;;11.43;5.72;;;13.30;68.70;;;;;;5039925;28;20028;-72
2022/04/16 00:07:00;;;;;;;10.90;5.38;;;13.30;68.40;;;;;;5032608;28;20536;-73
2022/04/16 00:09:26;;;;;;;11.02;5.68;;;13.30;68.30;;;;;;5072939;28;20032;-73
2022/04/16 00:11:59;;;;;;;10.50;5.57;;;13.20;68.10;;;;;;5055073;28;20036;-73
2022/04/16 00:14:25;;;;;;;9.68;5.10;;;13.20;67.90;;;;;;5056072;28;20511;-73
2022/04/16 00:16:54;;;;;;;9.65;5.43;;;13.10;68.00;;;;;;5074341;28;20386;-73
2022/04/16 00:19:23;;;;;;;10.43;5.70;;;13.00;67.90;;;;;;5055915;28;20039;-73
2022/04/16 00:21:51;;;;;;;8.32;5.13;;;13.00;67.80;;;;;;5056217;28;20060;-73
2022/04/16 00:24:20;;;;;;;8.85;4.78;;;13.00;68.20;;;;;;5056061;28;20503;-72
2022/04/16 00:27:00;;;;;;;7.85;4.32;;;13.00;67.70;;;;;;5052723;28;20039;-73
2022/04/16 00:29:26;;;;;;;8.35;4.35;;;13.00;67.40;;;;;;5053872;28;20665;-72
2022/04/16 00:31:55;;;;;;;7.82;4.03;;;13.00;67.20;;;;;;5055503;28;20033;-73
2022/04/16 00:34:23;;;;;;;8.23;4.18;;;12.90;67.00;;;;;;5039149;28;20029;-72
2022/04/16 00:36:57;;;;;;;8.63;4.40;;;13.00;66.80;;;;;;5055827;28;20037;-73
2022/04/16 00:39:28;;;;;;;7.43;3.85;;;12.90;66.80;;;;;;5052404;28;20386;-73
2022/04/16 00:41:57;;;;;;;7.93;3.75;;;13.00;66.40;;;;;;5037393;28;20048;-72
2022/04/16 00:44:23;;;;;;;10.85;4.13;;;13.00;66.20;;;;;;5056765;28;20039;-74
2022/04/16 00:46:50;;;;;;;7.13;3.28;;;13.00;66.00;;;;;;5073165;28;20052;-73
2022/04/16 00:49:16;;;;;;;;;;;13.00;66.00;;;;;;5056572;28;20044;-73
2022/04/16 00:51:46;;;;;;;5.68;2.70;;;12.90;65.10;;;;;;5055622;28;19920;-74
2022/04/16 00:54:12;;;;;;;5.75;2.83;;;13.00;65.10;;;;;;5055453;28;20032;-72
2022/04/16 00:56:39;;;;;;;5.82;2.70;;;13.00;64.80;;;;;;5037312;28;20093;-73
2022/04/16 00:59:06;;;;;;;5.55;2.75;;;13.10;64.40;;;;;;5073151;28;20195;-72
2022/04/16 01:01:32;;;;;;;5.95;2.85;;;13.20;64.10;;;;;;5038890;28;20033;-73
2022/04/16 01:03:59;;;;;;;7.82;3.15;;;13.30;63.70;;;;;;5055070;28;20029;-73
2022/04/16 01:06:55;;;;;;;5.72;2.67;;;13.40;63.40;;;;;;5038619;28;20028;-73
2022/04/16 01:09:21;;;;;;;5.90;2.55;;;13.40;62.90;;;;;;5052852;28;20031;-73
2022/04/16 01:11:50;;;;;;;4.20;1.85;;;13.50;62.90;;;;;;5070535;28;20555;-72
2022/04/16 01:14:19;;;;;;;4.35;2.15;;;13.40;62.60;;;;;;5072904;28;20032;-73
2022/04/16 01:16:45;;;;;;;4.60;1.98;;;13.50;62.60;;;;;;5054821;28;20497;-73
2022/04/16 01:19:11;;;;;;;;;;;13.50;62.00;;;;;;5055482;28;20052;-73
2022/04/16 01:21:38;;;;;;;5.95;2.15;;;13.50;62.20;;;;;;5072350;28;19924;-73
2022/04/16 01:24:05;;;;;;;5.68;2.67;;;13.50;62.20;;;;;;5054979;28;20595;-73
2022/04/16 01:26:32;;;;;;;5.30;2.25;;;13.50;62.40;;;;;;5053440;28;20037;-73
2022/04/16 01:28:59;;;;;;;4.93;1.85;;;13.50;62.50;;;;;;5049636;28;20033;-73
2022/04/16 01:31:25;;;;;;;4.30;1.70;;;13.40;62.50;;;;;;5054556;28;20028;-72
2022/04/16 01:33:51;;;;;;;5.10;2.10;;;13.40;62.50;;;;;;5072914;28;20029;-73
2022/04/16 01:36:17;;;;;;;4.70;1.90;;;13.50;62.60;;;;;;5054264;28;20406;-73
2022/04/16 01:38:43;;;;;;;6.00;2.25;;;13.50;62.90;;;;;;5055131;28;20032;-73
2022/04/16 01:41:09;;;;;;;5.15;2.47;;;13.50;62.90;;;;;;5054692;28;20036;-73
2022/04/16 01:43:35;;;;;;;5.45;2.70;;;13.50;63.10;;;;;;5071666;28;20047;-73
2022/04/16 01:46:04;;;;;;;5.20;2.22;;;13.50;63.20;;;;;;5071754;28;20044;-73
2022/04/16 01:48:30;;;;;;;4.78;2.25;;;13.50;63.40;;;;;;5072227;28;20032;-73
2022/04/16 01:50:58;;;;;;;5.85;2.40;;;13.40;63.50;;;;;;5053727;28;20025;-73
2022/04/16 01:53:24;;;;;;;6.00;2.17;;;13.40;62.80;;;;;;5047680;28;20021;-73
2022/04/16 01:55:50;;;;;;;6.05;2.50;;;13.40;63.30;;;;;;5039790;28;20040;-73
2022/04/16 01:58:16;;;;;;;6.13;2.35;;;13.50;63.20;;;;;;5047384;28;20037;-72
2022/04/16 02:00:42;;;;;;;;;;;13.40;62.40;;;;;;5035077;28;20477;-73
2022/04/16 02:03:08;;;;;;;5.78;2.50;;;13.40;62.80;;;;;;5063481;28;19919;-73
2022/04/16 02:05:34;;;;;;;;;;;13.40;63.20;;;;;;5038162;28;20035;-73
2022/04/16 02:08:01;;;;;;;7.05;2.30;;;13.30;62.20;;;;;;5054882;28;19927;-73
2022/04/16 02:10:27;;;;;;;5.60;2.38;;;13.30;62.80;;;;;;5070157;28;20094;-73
2022/04/16 02:12:53;;;;;;;5.35;2.83;;;13.30;62.90;;;;;;5053254;28;20040;-73
2022/04/16 02:15:19;;;;;;;5.15;2.10;;;13.30;62.90;;;;;;5071388;28;20033;-74
2022/04/16 02:17:45;;;;;;;4.93;2.00;;;13.30;62.70;;;;;;5072850;28;20044;-73
2022/04/16 02:20:11;;;;;;;5.95;2.45;;;13.40;62.40;;;;;;5053598;28;20381;-72
2022/04/16 02:22:56;;;;;;;5.75;2.55;;;13.40;61.60;;;;;;5054634;28;20044;-73
2022/04/16 02:25:25;;;;;;;4.20;2.00;;;13.40;62.20;;;;;;5071381;28;20515;-74
2022/04/16 02:27:52;;;;;;;6.55;2.42;;;13.40;61.80;;;;;;5054431;28;20037;-73
2022/04/16 02:30:20;;;;;;;5.90;2.95;;;13.40;61.50;;;;;;5040530;28;20033;-72
2022/04/16 02:32:52;;;;;;;5.78;2.65;;;13.40;61.30;;;;;;5037018;28;20444;-73
2022/04/16 02:35:18;;;;;;;7.40;2.75;;;13.30;61.50;;;;;;5070485;28;20041;-73
2022/04/16 02:37:45;;;;;;;7.32;2.85;;;13.30;60.90;;;;;;5072731;28;20032;-73
2022/04/16 02:40:12;;;;;;;7.50;2.83;;;13.30;61.30;;;;;;5053484;28;20032;-73
2022/04/16 02:42:41;;;;;;;6.82;3.30;;;13.30;61.20;;;;;;5040784;28;20045;-73
2022/04/16 02:47:56;;;;;;;7.15;3.60;;;13.20;61.30;;;;;;5037109;28;20047;-73
2022/04/16 02:50:25;;;;;;;7.95;4.00;;;13.20;61.20;;;;;;5017290;28;20037;-73
2022/04/16 02:52:53;;;;;;;7.07;3.72;;;13.10;61.40;;;;;;5051091;28;20041;-73
2022/04/16 02:55:19;;;;;;;7.78;3.92;;;13.10;61.70;;;;;;5017874;28;20029;-73
2022/04/16 02:57:46;;;;;;;;;;;13.00;61.10;;;;;;5034115;28;20048;-73
2022/04/16 03:00:14;;;;;;;6.82;3.92;;;13.00;61.20;;;;;;5017277;28;20016;-74
2022/04/16 03:02:41;;;;;;;8.23;3.90;;;12.90;61.80;;;;;;5033825;28;20041;-73
2022/04/16 03:05:09;;;;;;;7.93;3.50;;;12.90;61.40;;;;;;5033891;28;20029;-73
2022/04/16 03:07:36;;;;;;;6.63;3.53;;;12.90;61.90;;;;;;5034408;28;20037;-72
2022/04/16 03:10:21;;;;;;;7.50;3.90;;;12.90;61.90;;;;;;5051313;28;20029;-73
2022/04/16 03:12:55;;;;;;;7.65;4.35;;;12.90;61.80;;;;;;5033429;28;20034;-73
2022/04/16 03:18:07;;;;;;;7.57;4.05;;;13.00;61.40;;;;;;5034197;28;20052;-73
2022/04/16 03:20:37;;;;;;;8.75;4.00;;;13.00;61.00;;;;;;5016530;28;20029;-73
2022/04/16 03:23:03;;;;;;;7.28;3.80;;;13.00;60.90;;;;;;5014597;28;20545;-73
2022/04/16 03:25:30;;;;;;;9.15;5.53;;;13.00;60.80;;;;;;5031318;28;20045;-73
2022/04/16 03:27:58;;;;;;;8.50;4.38;;;13.00;60.10;;;;;;5021516;28;20041;-73
2022/04/16 03:30:25;;;;;;;8.10;3.80;;;13.00;60.50;;;;;;5033509;28;20048;-73
2022/04/16 03:32:52;;;;;;;7.13;4.07;;;13.00;60.30;;;;;;5052480;28;20095;-73
2022/04/16 03:35:20;;;;;;;6.57;3.42;;;13.00;60.20;;;;;;5054784;28;20391;-73
2022/04/16 03:37:46;;;;;;;9.43;4.28;;;13.00;60.10;;;;;;5055170;28;20128;-73
2022/04/16 03:40:12;;;;;;;;;;;13.00;59.40;;;;;;5037502;28;20032;-73
2022/04/16 03:42:59;;;;;;;10.35;5.22;;;13.00;59.30;;;;;;5048459;28;19959;-73
2022/04/16 03:45:28;;;;;;;9.07;4.40;;;12.90;59.80;;;;;;5056476;28;20033;-73
2022/04/16 03:47:56;;;;;;;7.25;3.83;;;12.90;59.70;;;;;;5075164;28;20029;-73
2022/04/16 03:50:24;;;;;;;9.13;4.38;;;12.90;59.60;;;;;;5056087;28;20110;-73
2022/04/16 03:52:52;;;;;;;9.13;5.18;;;12.90;59.40;;;;;;5057252;28;20119;-73
2022/04/16 04:01:06;;;;;;;5.90;3.10;;;12.90;58.90;;;;;;5058740;28;20059;-74
2022/04/16 04:03:33;;;;;;;5.40;2.55;;;12.90;58.60;;;;;;5057046;28;20501;-74
2022/04/16 04:06:01;;;;;;;5.53;2.65;;;12.90;58.40;;;;;;5056210;28;20039;-73
2022/04/16 04:08:27;;;;;;;4.72;2.58;;;12.90;57.90;;;;;;5056236;28;20062;-73
2022/04/16 04:10:53;;;;;;;5.50;2.45;;;12.90;57.90;;;;;;5039625;28;20452;-73
2022/04/16 04:13:19;;;;;;;7.20;2.55;;;12.80;56.90;;;;;;5056021;28;20486;-73
2022/04/16 04:15:46;;;;;;;12.07;3.22;;;12.90;57.40;;;;;;5056087;28;20032;-73
2022/04/16 04:18:12;;;;;;;6.32;3.10;;;12.90;57.10;;;;;;5056222;28;20043;-73
2022/04/16 04:20:39;;;;;;;5.60;2.65;;;12.90;56.90;;;;;;5073532;28;20071;-73
2022/04/16 04:23:06;;;;;;;5.53;2.85;;;12.90;56.10;;;;;;5074410;28;20406;-73
2022/04/16 04:25:32;;;;;;;5.38;2.10;;;12.90;56.60;;;;;;5055611;28;20366;-73
2022/04/16 04:27:58;;;;;;;5.25;1.92;;;12.90;56.10;;;;;;5049545;28;20048;-73
2022/04/16 04:30:24;;;;;;;5.78;2.10;;;12.90;55.90;;;;;;5055923;28;20457;-74
2022/04/16 04:32:51;;;;;;;6.45;2.78;;;12.90;55.80;;;;;;5039881;28;20047;-73
2022/04/16 04:35:17;;;;;;;6.10;2.80;;;12.90;55.70;;;;;;5051895;28;20553;-74
2022/04/16 04:37:43;;;;;;;5.25;2.10;;;12.90;55.70;;;;;;5054497;28;20033;-73
2022/04/16 04:40:09;;;;;;;4.65;1.73;;;12.90;55.40;;;;;;5055771;28;20040;-73
2022/04/16 04:42:37;;;;;;;5.20;2.25;;;12.80;54.50;;;;;;5073871;28;20222;-74
2022/04/16 04:45:09;;;;;;;5.38;2.53;;;12.90;55.00;;;;;;5054069;28;20201;-73
2022/04/16 04:47:35;;;;;;;5.75;2.13;;;12.90;54.80;;;;;;5035984;28;20041;-74
2022/04/16 04:50:02;;;;;;;5.75;2.15;;;12.90;54.70;;;;;;5036112;28;20033;-73
2022/04/16 04:52:29;;;;;;;;;;;12.90;54.80;;;;;;5044986;28;20178;-74
2022/04/16 04:54:57;;;;;;;5.65;2.10;;;12.90;54.80;;;;;;5049598;28;19919;-73
2022/04/16 04:57:23;;;;;;;7.63;3.08;;;12.90;54.20;;;;;;5055335;28;20090;-73
2022/04/16 04:59:50;;;;;;;6.82;2.40;;;12.90;54.10;;;;;;5054990;28;20044;-73
2022/04/16 05:02:16;;;;;;;7.15;2.78;;;13.00;54.00;;;;;;5054807;28;20041;-73
2022/04/16 05:04:44;;;;;;;7.60;2.83;;;13.00;54.00;;;;;;5055720;28;20449;-73
2022/04/16 05:07:10;;;;;;;5.05;2.25;;;13.00;53.80;;;;;;5055277;28;20036;-73
2022/04/16 05:09:56;;;;;;;13.52;5.93;;;13.00;53.80;;;;;;5055049;28;20052;-74
2022/04/16 05:12:22;;;;;;;26.27;11.27;;;13.00;53.70;;;;;;5073301;28;20067;-73
2022/04/16 05:14:48;;;;;;;19.55;9.02;;;12.90;53.90;;;;;;5072608;28;20489;-73
2022/04/16 05:17:14;;;;;;;13.10;6.40;;;12.90;54.00;;;;;;5055239;28;20062;-73
2022/04/16 05:19:40;;;;;;;9.52;4.28;;;12.80;53.90;;;;;;5073036;28;20024;-73
2022/04/16 05:22:06;;;;;;;8.18;3.63;;;12.80;53.90;;;;;;5073063;28;20454;-73
2022/04/16 05:24:32;;;;;;;8.68;3.05;;;12.80;54.10;;;;;;5073274;28;20028;-74
2022/04/16 05:26:58;;;;;;;11.35;4.57;;;12.70;54.10;;;;;;5073048;28;20052;-74
2022/04/16 05:29:24;;;;;;;10.65;4.03;;;12.70;54.10;;;;;;5054108;28;20052;-74
2022/04/16 05:31:50;;;;;;;10.15;5.10;;;12.60;53.90;;;;;;5072419;28;20505;-73
2022/04/16 05:34:19;;;;;;;7.43;3.50;;;12.60;53.70;;;;;;5055118;28;20116;-73
2022/04/16 05:37:05;;;;;;;18.35;5.10;;;12.70;53.80;;;;;;5037822;28;20095;-73
2022/04/16 05:39:31;;;;;;;10.20;2.80;;;12.60;53.80;;;;;;5035205;28;20048;-73
2022/04/16 05:41:57;;;;;;;7.28;2.60;;;12.70;53.60;;;;;;5052964;28;20504;-73
2022/04/16 05:44:23;;;;;;;8.55;2.80;;;12.70;53.50;;;;;;5053770;28;20419;-73
2022/04/16 05:46:49;;;;;;;10.43;2.45;;;12.70;54.10;;;;;;5054588;28;20052;-73
2022/04/16 05:49:15;;;;;;;6.05;2.25;;;12.80;53.40;;;;;;5055059;28;20029;-73
2022/04/16 05:51:41;;;;;;;6.00;2.58;;;12.80;53.10;;;;;;5054480;28;20151;-73
2022/04/16 05:54:07;;;;;;;5.07;2.40;;;12.90;52.70;;;;;;5071955;28;20029;-73
2022/04/16 05:56:35;;;;;;;6.28;3.03;;;12.90;53.40;;;;;;5054001;28;20037;-73
2022/04/16 05:59:01;;;;;;;6.28;2.55;;;13.00;52.60;;;;;;5053976;28;20037;-73
2022/04/16 06:01:27;;;;;;;5.22;2.58;;;13.20;52.40;;;;;;5072325;28;20055;-73
2022/04/16 06:03:53;;;;;;;7.50;2.78;;;13.40;52.00;;;;;;5072265;28;20524;-73
2022/04/16 06:06:19;;;;;;;8.05;2.35;;;13.60;51.60;;;;;;5054307;28;20079;-73
2022/04/16 06:08:45;;;;;;;5.75;2.47;;;13.70;51.30;;;;;;5054272;28;20028;-73
2022/04/16 06:11:12;;;;;;;4.57;1.85;;;13.80;51.10;;;;;;5071567;28;20036;-73
2022/04/16 06:13:38;;;;;;;;;;;13.90;50.80;;;;;;5054431;28;20063;-74
2022/04/16 06:16:06;;;;;;;5.15;2.47;;;14.00;51.00;;;;;;5053434;28;19920;-74
2022/04/16 06:18:32;;;;;;;6.63;2.40;;;14.00;50.70;;;;;;5035845;28;20049;-73
2022/04/16 06:20:58;;;;;;;4.07;1.67;;;14.00;50.70;;;;;;5034701;28;20517;-73
2022/04/16 06:23:24;;;;;;;5.30;2.15;;;14.10;50.70;;;;;;5072523;28;20108;-73
2022/04/16 06:25:50;;;;;;;6.20;2.08;;;14.00;50.30;;;;;;5072157;28;20032;-73
2022/04/16 06:28:16;;;;;;;3.83;1.63;;;14.10;50.40;;;;;;5072461;28;20040;-73
2022/04/16 06:30:42;;;;;;;4.85;2.00;;;14.30;50.20;;;;;;5071013;28;20036;-73
2022/04/16 06:33:08;;;;;;;7.07;2.63;;;14.50;49.50;;;;;;5071857;28;20374;-74
2022/04/16 06:35:34;;;;;;;7.82;2.08;;;14.70;49.10;;;;;;5053887;28;20279;-74
2022/04/16 06:38:00;;;;;;;4.18;1.40;;;14.80;48.90;;;;;;5072855;28;20643;-73
2022/04/16 06:40:27;;;;;;;4.28;1.80;;;14.90;48.60;;;;;;5053916;28;20051;-73
2022/04/16 06:42:53;;;;;;;4.25;1.70;;;14.90;48.30;;;;;;5053739;28;20131;-73
2022/04/16 06:45:19;;;;;;;4.40;1.75;;;15.00;48.10;;;;;;5052262;28;20337;-73
2022/04/16 06:47:45;;;;;;;4.60;1.88;;;15.20;47.90;;;;;;5054398;28;20041;-73
2022/04/16 06:50:11;;;;;;;5.82;2.40;;;15.30;47.40;;;;;;5069993;28;20045;-74
2022/04/16 06:52:38;;;;;;;5.68;2.25;;;15.30;46.70;;;;;;5048474;28;20043;-73
2022/04/16 06:55:06;;;;;;;8.25;3.03;;;15.40;46.30;;;;;;5054129;28;20386;-73
2022/04/16 06:57:32;;;;;;;7.93;3.10;;;15.60;46.70;;;;;;5072258;28;20041;-73
2022/04/16 06:59:58;;;;;;;;;;;15.80;46.60;;;;;;5053900;28;20032;-73
2022/04/16 07:02:24;;;;;;;8.50;3.60;;;15.80;47.10;;;;;;5041335;28;19927;-73
2022/04/16 07:04:50;;;;;;;8.35;3.80;;;15.90;46.40;;;;;;5054047;28;20047;-73
2022/04/16 07:07:16;;;;;;;6.07;3.20;;;16.00;46.10;;;;;;5072444;28;20045;-74
2022/04/16 07:09:43;;;;;;;5.88;3.42;;;16.00;45.50;;;;;;5075907;28;20083;-73
2022/04/16 07:12:11;;;;;;;6.22;1.60;;;16.00;45.10;;;;;;5056889;28;20041;-73
2022/04/16 07:14:39;;;;;;;8.85;4.10;;;16.10;44.80;;;;;;5056240;28;20037;-74
2022/04/16 07:17:24;;;;;;;8.00;4.03;;;16.50;44.40;;;;;;5056743;28;20064;-74
2022/04/16 07:19:50;;;;;;;8.52;5.10;;;17.10;43.90;;;;;;5051051;28;20025;-73
2022/04/16 07:22:37;;;;;;;5.60;1.90;;;17.60;42.90;;;;;;5055600;28;20037;-73
2022/04/16 07:25:05;;;;;;;4.20;1.55;;;18.00;42.50;;;;;;5059869;28;20079;-73
2022/04/16 07:27:32;;;;;;;5.28;2.22;;;18.30;41.80;;;;;;5057747;28;20041;-73
2022/04/16 07:29:59;;;;;;;3.60;1.50;;;18.70;41.80;;;;;;5074143;28;20515;-75
2022/04/16 07:32:44;;;;;;;3.55;1.63;;;19.00;41.40;;;;;;5075409;28;20056;-73
2022/04/16 07:35:10;;;;;;;3.22;1.45;;;19.50;41.30;;;;;;5074787;28;20036;-74
2022/04/16 07:37:36;;;;;;;4.40;1.40;;;19.90;39.60;;;;;;5075768;28;20261;-74
2022/04/16 07:40:05;;;;;;;4.35;1.60;;;20.30;38.50;;;;;;5075220;28;20033;-74
2022/04/16 07:42:32;;;;;;;3.88;1.40;;;20.80;37.10;;;;;;5074518;28;20106;-74
2022/04/16 07:44:58;;;;;;;3.22;1.20;;;21.10;36.60;;;;;;5074309;28;20505;-74
2022/04/16 07:47:24;;;;;;;;;;;21.20;36.00;;;;;;5057373;28;20044;-74
2022/04/16 07:49:50;;;;;;;3.35;1.38;;;21.60;38.10;;;;;;5057646;28;19974;-74
2022/04/16 07:52:16;;;;;;;;;;;21.80;34.70;;;;;;5056925;28;20029;-74
2022/04/16 07:54:43;;;;;;;8.27;1.30;;;21.90;36.20;;;;;;5056967;28;19912;-74
2022/04/16 07:57:10;;;;;;;9.52;3.40;;;21.90;33.50;;;;;;5056144;28;20048;-73
2022/04/16 07:59:36;;;;;;;13.60;7.38;;;21.60;33.00;;;;;;5074080;28;20078;-74
2022/04/16 08:02:02;;;;;;;18.80;9.60;;;21.70;33.50;;;;;;5056113;28;20045;-73
2022/04/16 08:04:28;;;;;;;3.58;1.48;;;21.60;32.00;;;;;;5074326;28;20037;-74
2022/04/16 08:06:54;;;;;;;;;;;21.60;32.10;;;;;;5075169;28;20029;-73
2022/04/16 08:09:20;;;;;;;5.70;1.80;;;22.00;33.40;;;;;;5040180;28;20003;-73
2022/04/16 08:11:46;;;;;;;;;;;22.70;31.70;;;;;;5056399;28;20489;-74
2022/04/16 08:14:13;;;;;;;4.55;2.00;;;22.60;33.10;;;;;;5056753;28;19913;-74
2022/04/16 08:16:40;;;;;;;4.78;2.70;;;22.50;32.00;;;;;;5038738;28;20563;-74
2022/04/16 08:19:06;;;;;;;6.47;2.03;;;23.10;30.80;;;;;;5056262;28;20079;-74
2022/04/16 08:21:34;;;;;;;4.63;2.28;;;23.40;30.50;;;;;;5074041;28;20482;-74
2022/04/16 08:26:46;;;;;;;4.57;1.77;;;23.20;29.90;;;;;;5058858;28;20048;-73
2022/04/16 08:29:12;;;;;;;;;;;23.10;30.20;;;;;;5074882;28;20040;-73
2022/04/16 08:31:38;;;;;;;3.60;1.60;;;24.20;30.50;;;;;;5072600;28;19924;-73
2022/04/16 08:34:04;;;;;;;4.93;1.88;;;25.10;28.90;;;;;;5056441;28;20104;-74
2022/04/16 08:36:30;;;;;;;4.40;1.75;;;25.40;28.00;;;;;;5073205;28;20114;-74
2022/04/16 08:38:56;;;;;;;7.47;3.40;;;26.30;27.50;;;;;;5039596;28;20021;-74
2022/04/16 08:41:25;;;;;;;11.40;6.20;;;26.80;26.40;;;;;;5037867;28;20052;-73
2022/04/16 08:43:54;;;;;;;22.27;12.73;;;26.30;26.30;;;;;;5073562;28;20031;-74
2022/04/16 08:46:21;;;;;;;5.43;2.33;;;26.60;25.60;;;;;;5054845;28;20040;-74
2022/04/16 08:48:49;;;;;;;7.82;3.58;;;27.70;24.70;;;;;;5056244;28;20059;-73
2022/04/16 08:51:16;;;;;;;5.82;2.53;;;28.80;23.30;;;;;;5073305;28;20070;-74
2022/04/16 08:53:42;;;;;;;4.00;1.60;;;29.90;22.80;;;;;;5073852;28;20086;-74
2022/04/16 08:56:08;;;;;;;3.97;1.38;;;30.60;21.20;;;;;;5055558;28;20473;-74
2022/04/16 08:58:34;;;;;;;4.47;1.45;;;31.40;21.40;;;;;;5073731;28;20072;-74
2022/04/16 09:01:00;;;;;;;5.50;2.22;;;31.90;19.90;;;;;;5054322;28;20040;-75
2022/04/16 09:03:48;;;;;;;3.45;1.30;;;32.00;19.90;;;;;;5064017;28;20033;-73
2022/04/16 09:06:23;;;;;;;10.18;4.78;;;32.60;19.60;;;;;;5045277;28;20390;-73
2022/04/16 09:08:49;;;;;;;4.20;1.70;;;33.10;18.60;;;;;;5055815;28;20027;-74
2022/04/16 09:11:22;;;;;;;2.63;1.42;;;33.80;17.80;;;;;;5073198;28;20060;-74
2022/04/16 09:14:07;;;;;;;2.45;1.30;;;34.40;16.50;;;;;;5055415;28;20543;-74
2022/04/16 09:16:37;;;;;;;3.75;1.50;;;35.20;16.80;;;;;;5071837;28;20557;-74
2022/04/16 09:19:03;;;;;;;2.78;1.20;;;35.80;15.10;;;;;;5055687;28;20036;-74
2022/04/16 09:21:29;;;;;;;4.38;2.00;;;35.30;15.80;;;;;;5072494;28;20044;-74
2022/04/16 09:24:14;;;;;;;3.53;1.42;;;35.00;15.80;;;;;;5054692;28;20029;-74
2022/04/16 09:26:40;;;;;;;2.92;1.20;;;35.70;15.90;;;;;;5072972;28;20067;-74
2022/04/16 09:29:28;;;;;;;2.80;1.20;;;35.40;15.00;;;;;;5073259;28;20086;-74
2022/04/16 09:31:54;;;;;;;3.33;1.42;;;33.80;16.00;;;;;;5053696;28;20192;-74
2022/04/16 09:34:47;;;;;;;3.42;1.88;;;32.20;16.70;;;;;;5054977;28;20029;-74
2022/04/16 09:37:14;;;;;;;4.50;1.63;;;31.00;17.80;;;;;;5054912;28;20040;-74
2022/04/16 09:39:40;;;;;;;3.70;1.85;;;30.10;18.00;;;;;;5055109;28;20512;-74
2022/04/16 09:42:06;;;;;;;4.28;2.20;;;29.30;18.00;;;;;;5046598;28;20061;-74
2022/04/16 09:44:32;;;;;;;4.45;1.88;;;28.60;18.60;;;;;;5035135;28;20467;-74
2022/04/16 09:46:59;;;;;;;3.17;1.50;;;29.70;18.10;;;;;;5051782;28;20050;-74
2022/04/16 09:49:25;;;;;;;1.85;0.90;;;29.00;18.50;;;;;;5052987;28;20036;-74
2022/04/16 09:51:52;;;;;;;3.85;1.20;;;30.40;17.50;;;;;;5052163;28;20048;-74
2022/04/16 09:54:21;;;;;;;2.13;1.00;;;31.00;17.50;;;;;;5034405;28;20569;-74
2022/04/16 09:56:48;;;;;;;3.58;1.33;;;30.10;17.30;;;;;;5035019;28;20033;-75
2022/04/16 09:59:16;;;;;;;1.90;0.80;;;31.60;16.00;;;;;;5052169;28;20040;-74
2022/04/16 10:01:48;;;;;;;2.15;0.95;;;32.40;16.00;;;;;;5049378;28;20041;-74
2022/04/16 10:04:33;;;;;;;3.40;1.15;;;31.20;16.60;;;;;;5052370;28;20108;-74
2022/04/16 10:06:59;;;;;;;4.05;1.58;;;32.40;16.00;;;;;;5028296;28;20099;-74
2022/04/16 10:09:27;;;;;;;6.90;1.13;;;31.40;16.30;;;;;;5034864;28;20029;-75
2022/04/16 10:15:10;;;;;;;5.30;1.27;;;28.50;17.90;;;;;;5021689;28;20076;-74
2022/04/16 10:20:25;;;;;;;3.03;1.10;;;28.70;18.90;;;;;;5037939;28;20401;-74
2022/04/16 10:23:11;;;;;;;2.00;0.93;;;31.50;17.30;;;;;;5052351;28;20064;-74
2022/04/16 10:26:15;;;;;;;2.72;1.20;;;32.50;15.50;;;;;;5034380;28;20032;-74
2022/04/16 10:29:00;;;;;;;2.88;1.55;;;30.80;16.80;;;;;;5032248;28;20124;-74
2022/04/16 10:31:29;;;;;;;2.15;1.02;;;33.00;16.40;;;;;;5032547;28;20041;-75
2022/04/16 10:34:16;;;;;;;3.33;1.08;;;34.80;14.10;;;;;;5034599;28;20116;-75
2022/04/16 10:36:54;;;;;;;5.65;1.20;;;36.00;14.00;;;;;;5033816;28;20037;-74
2022/04/16 10:42:12;;;;;;;3.42;1.20;;;33.60;14.60;;;;;;5046999;28;20056;-74
2022/04/16 10:45:07;;;;;;;4.00;1.52;;;32.20;15.60;;;;;;5075185;28;20045;-74
2022/04/16 10:47:38;;;;;;;3.28;1.40;;;30.90;16.00;;;;;;5051625;28;20040;-74
2022/04/16 10:50:23;;;;;;;3.85;1.02;;;29.70;16.50;;;;;;5058405;28;20033;-75
2022/04/16 10:53:08;;;;;;;2.30;0.80;;;28.70;17.10;;;;;;5057997;28;20060;-74
2022/04/16 10:55:36;;;;;;;1.73;0.77;;;27.90;18.40;;;;;;5057878;28;20044;-74
2022/04/16 10:58:04;;;;;;;2.70;1.10;;;27.20;19.10;;;;;;5058563;28;20111;-74
2022/04/16 11:00:49;;;;;;;6.60;1.58;;;26.30;19.40;;;;;;5040923;28;20500;-74
2022/04/16 11:03:28;;;;;;;3.22;0.93;;;25.70;20.10;;;;;;5056918;28;20047;-74
2022/04/16 11:06:13;;;;;;;16.50;8.75;;;25.70;20.20;;;;;;5057760;28;20669;-74
2022/04/16 11:08:41;;;;;;;5.15;2.15;;;26.00;19.70;;;;;;5057984;28;20035;-74
2022/04/16 11:11:27;;;;;;;8.20;3.08;;;25.70;20.30;;;;;;5075462;28;20385;-74
2022/04/16 11:13:56;;;;;;;4.50;1.98;;;27.50;19.70;;;;;;5057260;28;20424;-74
2022/04/16 11:16:23;;;;;;;3.42;1.55;;;29.60;17.80;;;;;;5073812;28;20516;-74
2022/04/16 11:18:49;;;;;;;5.40;2.38;;;30.00;17.40;;;;;;5057898;28;20107;-75
2022/04/16 11:24:05;;;;;;;4.93;1.80;;;32.00;16.30;;;;;;5058099;28;20289;-74
2022/04/16 11:34:55;;;;;;;4.32;1.45;;;26.20;19.50;;;;;;5040636;28;20136;-73
2022/04/16 11:37:21;;;;;;;2.97;1.30;;;25.30;20.40;;;;;;5034377;28;20075;-75
2022/04/16 11:40:16;;;;;;;2.38;0.95;;;24.70;21.20;;;;;;5075398;28;20079;-73
2022/04/16 11:42:45;;;;;;;2.67;1.27;;;24.10;21.80;;;;;;5052705;28;20056;-74
2022/04/16 11:45:11;;;;;;;3.65;1.70;;;23.60;22.40;;;;;;5034869;28;20034;-74
2022/04/16 11:47:37;;;;;;;2.75;1.15;;;23.20;23.10;;;;;;5042453;28;20049;-74
2022/04/16 11:52:53;;;;;;;2.85;1.10;;;22.40;23.90;;;;;;5042171;28;20051;-74
2022/04/16 11:55:19;;;;;;;2.60;1.20;;;22.30;24.70;;;;;;5063226;28;20037;-74
2022/04/16 11:58:07;;;;;;;2.58;1.08;;;22.10;25.10;;;;;;5036743;28;20037;-74
2022/04/16 12:00:33;;;;;;;4.28;1.17;;;21.90;25.70;;;;;;5054054;28;20025;-74
2022/04/16 12:02:59;;;;;;;;;;;21.80;26.30;;;;;;5020512;28;20048;-74
2022/04/16 12:05:28;;;;;;;6.85;1.50;;;21.60;25.60;;;;;;5053888;28;19920;-74
2022/04/16 12:07:55;;;;;;;2.60;1.27;;;21.60;26.50;;;;;;5037160;28;20087;-73
2022/04/16 12:10:24;;;;;;;3.28;1.33;;;21.60;26.70;;;;;;5053192;28;20029;-73
2022/04/16 12:12:53;;;;;;;4.47;1.38;;;21.60;27.00;;;;;;5031486;28;20038;-73
2022/04/16 12:16:02;;;;;;;2.80;1.20;;;21.60;27.10;;;;;;5027115;28;20049;-74
2022/04/16 12:18:36;;;;;;;2.25;1.00;;;21.60;27.00;;;;;;5019112;28;20425;-74
2022/04/16 12:21:21;;;;;;;4.15;1.60;;;21.60;27.30;;;;;;5035521;28;20474;-74
2022/04/16 12:23:47;;;;;;;3.55;1.30;;;21.60;27.50;;;;;;5054921;28;20142;-75
2022/04/16 12:26:32;;;;;;;4.78;1.80;;;21.60;27.40;;;;;;5067134;28;20095;-74
2022/04/16 12:28:58;;;;;;;5.43;2.33;;;21.40;27.50;;;;;;5034509;28;20041;-74
2022/04/16 12:31:43;;;;;;;6.90;2.38;;;21.30;28.10;;;;;;5037534;28;20036;-74
2022/04/16 12:34:09;;;;;;;4.28;1.60;;;21.10;28.50;;;;;;5054120;28;20040;-74
2022/04/16 12:36:35;;;;;;;5.68;2.08;;;20.90;28.70;;;;;;5053779;28;20091;-74
2022/04/16 12:39:01;;;;;;;5.63;2.03;;;21.10;28.50;;;;;;5053266;28;20037;-74
2022/04/16 12:41:27;;;;;;;3.53;1.25;;;21.10;28.40;;;;;;5049773;28;20037;-74
2022/04/16 12:43:53;;;;;;;4.78;2.00;;;21.20;28.40;;;;;;5074223;28;20028;-74
2022/04/16 12:46:19;;;;;;;;;;;21.40;28.50;;;;;;5055787;28;20056;-74
2022/04/16 12:48:45;;;;;;;4.15;1.20;;;21.40;27.80;;;;;;5054674;28;20437;-74
2022/04/16 12:51:11;;;;;;;2.35;1.13;;;21.30;28.30;;;;;;5039057;28;20041;-74
2022/04/16 12:53:38;;;;;;;2.35;1.00;;;21.30;28.40;;;;;;5073894;28;20029;-74
2022/04/16 12:56:04;;;;;;;;;;;21.10;28.80;;;;;;5056179;28;20118;-73
2022/04/16 12:58:30;;;;;;;2.53;0.93;;;20.90;28.00;;;;;;5055343;28;19912;-74
2022/04/16 13:00:56;;;;;;;6.40;2.90;;;20.80;28.70;;;;;;5073391;28;20039;-74
2022/04/16 13:03:21;;;;;;;;;;;20.60;29.00;;;;;;5054990;28;20029;-73
2022/04/16 13:05:49;;;;;;;4.07;1.30;;;20.30;28.90;;;;;;5037662;28;19912;-74
2022/04/16 13:08:16;;;;;;;2.90;1.38;;;20.10;30.00;;;;;;5071804;28;20562;-74
2022/04/16 13:10:42;;;;;;;3.20;1.23;;;20.00;30.10;;;;;;5054624;28;20036;-73
2022/04/16 13:13:09;;;;;;;7.07;1.83;;;19.90;30.00;;;;;;5072269;28;20370;-73
2022/04/16 13:15:35;;;;;;;2.85;0.90;;;19.80;30.30;;;;;;5054977;28;20401;-73
2022/04/16 13:18:03;;;;;;;3.22;0.93;;;19.80;30.00;;;;;;5072186;28;20066;-74
2022/04/16 13:20:29;;;;;;;4.40;1.88;;;19.80;29.70;;;;;;5053221;28;20067;-73
2022/04/16 13:22:55;;;;;;;5.30;1.30;;;19.90;29.80;;;;;;5069302;28;20094;-73
2022/04/16 13:25:21;;;;;;;4.95;1.83;;;19.90;29.80;;;;;;5072845;28;20032;-73
2022/04/16 13:27:47;;;;;;;3.60;1.50;;;20.00;29.50;;;;;;5055292;28;20051;-74
2022/04/16 13:30:13;;;;;;;10.30;3.97;;;20.20;29.50;;;;;;5071595;28;20025;-73
2022/04/16 13:32:39;;;;;;;;;;;20.10;29.40;;;;;;5055059;28;20512;-73
2022/04/16 13:35:06;;;;;;;6.40;2.10;;;20.20;29.10;;;;;;5054823;28;19942;-74
2022/04/16 13:37:32;;;;;;;5.80;2.30;;;20.00;29.00;;;;;;5055251;28;20037;-74